Time;durP1;ratioP1;P1;durP2;ratioP2;P2;SDS_P1;SDS_P2;PMS_P1;PMS_P2;Temp;Humidity;BMP_temperature;BMP_pressure;BME280_temperature;BME280_humidity;BME280_pressure;Samples;Min_cycle;Max_cycle;Signal;HPM_P1;HPM_P2
2023/10/10 00:01:43;;;;;;;9.13;4.13;;;20.00;70.50;;;;;;5102202;28;20606;-64
2023/10/10 00:04:11;;;;;;;9.47;4.17;;;19.90;70.80;;;;;;5112170;28;20228;-64
2023/10/10 00:06:39;;;;;;;11.07;4.80;;;19.90;70.90;;;;;;5092794;28;20207;-64
2023/10/10 00:09:09;;;;;;;10.73;4.50;;;19.90;71.00;;;;;;5093320;28;20224;-64
2023/10/10 00:11:41;;;;;;;9.30;4.40;;;19.80;70.90;;;;;;5092125;28;20257;-64
2023/10/10 00:14:15;;;;;;;9.97;4.50;;;19.80;70.90;;;;;;5091728;28;20227;-63
2023/10/10 00:16:43;;;;;;;11.03;4.50;;;19.70;70.70;;;;;;5093731;28;20197;-64
2023/10/10 00:19:17;;;;;;;8.73;4.43;;;19.70;70.80;;;;;;5100353;28;20611;-64
2023/10/10 00:21:45;;;;;;;7.80;4.47;;;19.70;70.80;;;;;;5097490;28;20223;-64
2023/10/10 00:24:12;;;;;;;11.20;4.60;;;19.70;70.90;;;;;;5103309;28;20200;-64
2023/10/10 00:26:42;;;;;;;17.00;4.90;;;19.70;70.90;;;;;;5093329;28;20223;-64
2023/10/10 00:29:11;;;;;;;11.40;4.53;;;19.70;70.90;;;;;;5099406;28;20219;-63
2023/10/10 00:31:43;;;;;;;12.50;4.63;;;19.80;71.00;;;;;;5110282;28;20720;-63
2023/10/10 00:34:13;;;;;;;7.67;4.37;;;19.70;70.80;;;;;;5098325;28;20607;-63
2023/10/10 00:36:41;;;;;;;11.17;4.63;;;19.70;70.70;;;;;;5109884;28;20203;-63
2023/10/10 00:39:21;;;;;;;10.33;4.30;;;19.80;70.70;;;;;;5111467;28;20220;-63
2023/10/10 00:41:53;;;;;;;13.67;5.43;;;19.70;70.40;;;;;;5084350;28;20227;-63
2023/10/10 00:44:25;;;;;;;11.73;4.60;;;19.70;70.30;;;;;;5103008;28;20683;-63
2023/10/10 00:46:56;;;;;;;9.47;4.80;;;19.80;70.30;;;;;;5107708;28;20246;-63
2023/10/10 00:49:26;;;;;;;8.07;4.17;;;19.80;70.40;;;;;;5102782;28;20223;-64
2023/10/10 00:51:55;;;;;;;11.83;4.50;;;19.70;70.40;;;;;;5102750;28;20610;-64
2023/10/10 00:54:30;;;;;;;14.13;5.10;;;19.70;70.40;;;;;;5092474;28;20224;-64
2023/10/10 00:56:59;;;;;;;8.03;4.20;;;19.70;70.50;;;;;;5091549;28;20291;-63
2023/10/10 00:59:34;;;;;;;11.63;4.40;;;19.70;70.70;;;;;;5108792;28;20265;-64
2023/10/10 01:02:04;;;;;;;10.63;4.73;;;19.60;71.50;;;;;;5115783;28;20211;-64
2023/10/10 01:04:38;;;;;;;8.90;4.40;;;19.60;70.80;;;;;;5115283;28;20223;-64
2023/10/10 01:07:07;;;;;;;9.60;4.73;;;19.60;70.90;;;;;;5115185;28;20260;-64
2023/10/10 01:09:35;;;;;;;9.07;4.03;;;19.50;70.70;;;;;;5115332;28;20249;-64
2023/10/10 01:12:04;;;;;;;8.77;4.37;;;19.50;70.50;;;;;;5093015;28;20247;-64
2023/10/10 01:14:38;;;;;;;8.93;4.50;;;19.50;70.60;;;;;;5114983;28;20262;-64
2023/10/10 01:17:06;;;;;;;10.60;4.80;;;19.50;70.70;;;;;;5113476;28;20241;-64
2023/10/10 01:19:35;;;;;;;13.47;5.43;;;19.40;70.60;;;;;;5115801;28;20203;-64
2023/10/10 01:22:12;;;;;;;10.83;5.00;;;19.40;71.30;;;;;;5099092;28;20235;-64
2023/10/10 01:24:40;;;;;;;5.87;4.20;;;19.40;71.50;;;;;;5095838;28;20196;-64
2023/10/10 01:27:21;;;;;;;13.23;4.57;;;19.30;71.30;;;;;;5107856;28;20211;-64
2023/10/10 01:30:17;;;;;;;8.20;4.37;;;19.30;71.40;;;;;;5103887;28;20203;-63
2023/10/10 01:32:39;;;;;;;8.63;4.77;;;19.30;71.30;;;;;;5113161;28;20695;-64
2023/10/10 01:35:15;;;;;;;11.40;4.67;;;19.20;71.30;;;;;;5097481;28;20204;-63
2023/10/10 01:37:54;;;;;;;10.17;4.13;;;19.20;71.40;;;;;;5107718;28;20240;-64
2023/10/10 01:40:24;;;;;;;8.43;4.50;;;19.20;71.30;;;;;;5082961;28;20223;-63
2023/10/10 01:42:53;;;;;;;8.53;5.03;;;19.10;71.30;;;;;;5100137;28;20586;-64
2023/10/10 01:45:21;;;;;;;10.80;4.70;;;19.10;71.40;;;;;;5102396;28;20220;-64
2023/10/10 01:47:57;;;;;;;10.63;5.17;;;19.00;71.40;;;;;;5113961;28;20655;-64
2023/10/10 01:50:26;;;;;;;9.77;4.80;;;19.00;71.70;;;;;;5112990;28;20219;-64
2023/10/10 01:52:56;;;;;;;8.20;4.60;;;19.00;71.70;;;;;;5113642;28;20468;-64
2023/10/10 01:55:24;;;;;;;9.83;4.33;;;19.00;72.00;;;;;;5084733;28;20200;-63
2023/10/10 01:57:51;;;;;;;9.57;3.80;;;18.90;71.90;;;;;;5112088;28;20200;-64
2023/10/10 02:00:22;;;;;;;13.87;4.87;;;18.90;71.80;;;;;;5114191;28;20287;-64
2023/10/10 02:02:50;;;;;;;11.43;4.47;;;18.90;72.10;;;;;;5113987;28;20493;-64
2023/10/10 02:05:29;;;;;;;7.30;4.20;;;18.90;72.10;;;;;;5113696;28;20934;-64
2023/10/10 02:07:57;;;;;;;12.07;4.63;;;18.80;72.20;;;;;;5112166;28;20215;-62
2023/10/10 02:10:26;;;;;;;8.20;3.60;;;18.80;72.50;;;;;;5080961;28;20196;-64
2023/10/10 02:12:53;;;;;;;9.60;4.70;;;18.80;72.70;;;;;;5070089;28;20233;-63
2023/10/10 02:15:26;;;;;;;8.60;4.20;;;18.70;72.60;;;;;;5090741;28;20208;-63
2023/10/10 02:17:55;;;;;;;13.73;5.13;;;18.70;72.40;;;;;;5099116;28;20203;-64
2023/10/10 02:20:49;;;;;;;10.00;4.97;;;18.70;72.30;;;;;;5111721;28;20206;-63
2023/10/10 02:23:27;;;;;;;8.90;3.93;;;18.60;72.10;;;;;;5073414;28;20435;-63
2023/10/10 02:26:03;;;;;;;10.33;4.30;;;18.60;72.20;;;;;;5092116;28;20231;-64
2023/10/10 02:28:47;;;;;;;10.23;4.23;;;18.60;72.30;;;;;;5093605;28;20201;-63
2023/10/10 02:31:16;;;;;;;11.03;4.73;;;18.60;72.00;;;;;;5093287;28;20228;-64
2023/10/10 02:33:49;;;;;;;6.80;4.50;;;18.60;72.10;;;;;;5094482;28;20207;-64
2023/10/10 02:36:29;;;;;;;13.27;5.17;;;18.60;72.20;;;;;;5111166;28;20522;-63
2023/10/10 02:39:10;;;;;;;13.83;5.20;;;18.60;72.30;;;;;;5093211;28;20468;-63
2023/10/10 02:41:39;;;;;;;9.57;4.20;;;18.50;72.30;;;;;;5093164;28;20245;-64
2023/10/10 02:44:09;;;;;;;7.57;3.90;;;18.50;72.20;;;;;;5104430;28;20465;-64
2023/10/10 02:46:37;;;;;;;11.10;4.37;;;18.50;72.50;;;;;;5097660;28;20218;-64
2023/10/10 02:49:13;;;;;;;10.77;4.83;;;18.50;72.30;;;;;;5096352;28;20652;-63
2023/10/10 02:51:42;;;;;;;9.40;4.53;;;18.50;72.50;;;;;;5081840;28;20196;-63
2023/10/10 02:54:27;;;;;;;10.17;4.60;;;18.40;72.70;;;;;;5093401;28;20228;-64
2023/10/10 02:56:56;;;;;;;9.43;4.97;;;18.40;72.80;;;;;;5111986;28;20203;-64
2023/10/10 02:59:23;;;;;;;11.07;4.60;;;18.40;72.80;;;;;;5113282;28;20884;-63
2023/10/10 03:01:56;;;;;;;9.73;4.43;;;18.30;72.50;;;;;;5113165;28;20833;-63
2023/10/10 03:04:52;;;;;;;10.83;4.60;;;18.30;72.10;;;;;;5112949;28;20235;-64
2023/10/10 03:07:15;;;;;;;11.10;4.13;;;18.30;72.10;;;;;;5099054;28;20209;-64
2023/10/10 03:10:12;;;;;;;6.67;3.57;;;18.30;72.20;;;;;;5103253;28;20228;-63
2023/10/10 03:12:31;;;;;;;9.83;4.73;;;18.30;72.30;;;;;;5092306;28;20203;-64
2023/10/10 03:15:12;;;;;;;6.73;4.10;;;18.20;72.30;;;;;;5092418;28;20533;-63
2023/10/10 03:17:47;;;;;;;8.00;3.80;;;18.20;72.30;;;;;;5092469;28;20442;-64
2023/10/10 03:20:23;;;;;;;7.80;4.40;;;18.20;72.50;;;;;;5092080;28;20438;-64
2023/10/10 03:25:51;;;;;;;7.37;4.37;;;18.20;72.70;;;;;;5109734;27;20655;-64
2023/10/10 03:28:19;;;;;;;8.63;4.40;;;18.10;72.60;;;;;;5109831;28;20852;-63
2023/10/10 03:31:03;;;;;;;8.27;4.17;;;18.10;72.70;;;;;;5109165;28;21051;-64
2023/10/10 03:33:36;;;;;;;7.50;4.40;;;18.10;72.80;;;;;;5109457;28;20544;-63
2023/10/10 03:36:14;;;;;;;8.53;4.23;;;18.10;72.90;;;;;;5109555;28;20449;-63
2023/10/10 03:38:58;;;;;;;8.57;4.23;;;18.00;73.00;;;;;;5109018;28;20505;-64
2023/10/10 05:25:51;;;;;;;8.63;4.53;;;17.70;76.10;;;;;;5099221;28;20485;-64
2023/10/10 05:28:19;;;;;;;8.17;5.20;;;17.70;75.70;;;;;;5094191;28;20480;-64
2023/10/10 05:30:47;;;;;;;9.70;5.07;;;17.80;75.70;;;;;;5093818;28;20451;-64
2023/10/10 05:33:19;;;;;;;13.30;5.10;;;17.80;75.70;;;;;;5093622;28;20476;-64
2023/10/10 05:35:48;;;;;;;12.70;5.80;;;17.80;75.50;;;;;;5093759;28;20288;-64
2023/10/10 05:38:16;;;;;;;12.87;5.90;;;17.80;75.20;;;;;;5093029;28;20494;-64
2023/10/10 05:40:43;;;;;;;13.57;5.60;;;17.80;75.10;;;;;;5093741;28;20212;-64
2023/10/10 05:43:15;;;;;;;10.27;4.93;;;17.80;75.20;;;;;;5094749;28;20227;-64
2023/10/10 05:45:42;;;;;;;10.80;5.73;;;17.80;75.20;;;;;;5093862;28;20528;-65
2023/10/10 05:48:09;;;;;;;9.33;5.23;;;17.80;75.20;;;;;;5093131;28;20446;-64
2023/10/10 05:50:37;;;;;;;11.70;5.43;;;17.80;75.30;;;;;;5093501;28;20470;-63
2023/10/10 05:53:07;;;;;;;9.90;5.00;;;17.80;75.30;;;;;;5093051;28;20453;-64
2023/10/10 05:55:35;;;;;;;11.07;5.53;;;17.80;75.30;;;;;;5093412;28;20961;-65
2023/10/10 05:58:02;;;;;;;10.60;5.10;;;17.80;75.20;;;;;;5093913;28;20809;-65
2023/10/10 06:00:36;;;;;;;8.00;4.93;;;17.80;75.30;;;;;;5092528;28;21057;-65
2023/10/10 06:03:05;;;;;;;8.17;4.53;;;17.80;75.20;;;;;;5092953;28;20447;-65
2023/10/10 06:05:33;;;;;;;8.93;5.17;;;17.80;74.90;;;;;;5092270;28;21062;-65
2023/10/10 06:08:01;;;;;;;12.73;5.00;;;17.80;74.70;;;;;;5093336;28;20230;-64
2023/10/10 06:10:32;;;;;;;11.20;5.47;;;17.80;74.40;;;;;;5092843;28;20439;-64
2023/10/10 06:13:03;;;;;;;11.67;5.90;;;17.80;74.40;;;;;;5093333;28;20535;-64
2023/10/10 06:15:33;;;;;;;10.87;5.43;;;17.80;74.30;;;;;;5092195;28;20530;-65
2023/10/10 06:18:08;;;;;;;11.53;5.77;;;17.80;74.40;;;;;;5092437;28;20996;-65
2023/10/10 06:20:40;;;;;;;9.67;5.90;;;17.80;74.60;;;;;;5092406;28;20503;-64
2023/10/10 06:23:08;;;;;;;8.20;5.30;;;17.80;74.60;;;;;;5091797;28;20451;-64
2023/10/10 06:25:38;;;;;;;9.73;5.70;;;17.80;75.20;;;;;;5091598;28;20490;-64
2023/10/10 06:28:18;;;;;;;12.07;5.40;;;17.80;74.80;;;;;;5092097;28;20794;-64
2023/10/10 06:30:45;;;;;;;7.47;4.47;;;17.80;74.70;;;;;;5091892;28;20498;-64
2023/10/10 06:33:15;;;;;;;9.00;5.47;;;17.80;74.80;;;;;;5092070;28;20534;-64
2023/10/10 06:35:52;;;;;;;8.67;5.23;;;17.80;75.10;;;;;;5091445;28;20802;-64
2023/10/10 06:38:24;;;;;;;10.60;6.30;;;17.90;75.20;;;;;;5091697;28;20218;-64
2023/10/10 06:40:55;;;;;;;10.77;5.23;;;17.90;75.20;;;;;;5092010;28;20718;-64
2023/10/10 06:43:22;;;;;;;10.77;5.37;;;17.90;75.00;;;;;;5091694;28;20228;-64
2023/10/10 06:45:54;;;;;;;13.40;5.47;;;18.00;75.10;;;;;;5090880;28;20304;-64
2023/10/10 06:48:22;;;;;;;12.47;5.73;;;17.90;75.30;;;;;;5091100;28;20937;-63
2023/10/10 06:50:50;;;;;;;10.67;5.43;;;17.90;75.40;;;;;;5091218;28;20205;-64
2023/10/10 06:53:34;;;;;;;12.07;5.20;;;17.90;75.60;;;;;;5091425;28;20442;-64
2023/10/10 06:56:14;;;;;;;10.50;4.77;;;18.00;75.70;;;;;;5091093;28;20596;-64
2023/10/10 06:58:45;;;;;;;9.67;5.43;;;18.10;76.00;;;;;;5091222;28;20450;-65
2023/10/10 07:01:18;;;;;;;11.87;6.63;;;18.20;76.10;;;;;;5090935;28;20331;-64
2023/10/10 07:03:54;;;;;;;14.60;8.80;;;18.20;76.10;;;;;;5091285;28;20641;-64
2023/10/10 07:06:21;;;;;;;11.77;8.20;;;18.30;76.20;;;;;;5090819;28;20306;-64
2023/10/10 07:09:00;;;;;;;12.77;8.80;;;18.40;76.30;;;;;;5090724;28;20738;-65
2023/10/10 07:11:29;;;;;;;12.87;8.53;;;18.50;76.50;;;;;;5090283;28;20208;-64
2023/10/10 07:13:58;;;;;;;12.57;8.90;;;18.60;76.60;;;;;;5070512;28;20239;-64
2023/10/10 07:16:25;;;;;;;14.03;9.30;;;18.60;76.40;;;;;;5070677;28;20660;-64
2023/10/10 07:18:56;;;;;;;15.20;9.60;;;18.70;76.00;;;;;;5070497;28;20300;-65
2023/10/10 07:21:30;;;;;;;16.63;10.73;;;18.80;75.80;;;;;;5081036;28;20224;-65
2023/10/10 07:24:05;;;;;;;19.37;10.77;;;18.90;74.80;;;;;;5090629;28;20263;-64
2023/10/10 07:26:41;;;;;;;14.87;10.03;;;18.90;74.30;;;;;;5090846;28;20436;-64
2023/10/10 07:31:48;;;;;;;10.90;8.17;;;19.10;73.50;;;;;;5090531;28;20200;-64
2023/10/10 07:34:16;;;;;;;9.50;6.80;;;19.20;73.20;;;;;;5090827;28;20291;-64
2023/10/10 07:36:43;;;;;;;10.90;6.50;;;19.30;72.70;;;;;;5090976;28;20204;-64
2023/10/10 07:42:12;;;;;;;11.07;5.87;;;19.50;72.50;;;;;;5047945;28;20327;-65
2023/10/10 07:44:41;;;;;;;10.07;6.13;;;19.60;72.20;;;;;;5047504;28;20587;-65
2023/10/10 07:47:19;;;;;;;8.93;5.13;;;19.70;72.20;;;;;;5067789;28;20265;-64
2023/10/10 07:49:50;;;;;;;10.80;6.07;;;19.80;71.90;;;;;;5090674;28;20630;-64
2023/10/10 07:52:20;;;;;;;10.20;5.43;;;20.00;71.40;;;;;;5090648;28;20252;-65
2023/10/10 07:54:51;;;;;;;12.50;6.53;;;20.10;71.10;;;;;;5090517;28;20632;-64
2023/10/10 07:57:23;;;;;;;9.93;5.70;;;20.10;71.30;;;;;;5090453;28;20209;-65
2023/10/10 07:59:54;;;;;;;12.17;6.37;;;20.20;70.30;;;;;;5090466;28;20201;-64
2023/10/10 08:02:25;;;;;;;14.10;5.87;;;20.30;70.40;;;;;;5089188;28;20208;-64
2023/10/10 08:04:53;;;;;;;11.40;6.07;;;20.50;70.70;;;;;;5090342;28;20259;-65
2023/10/10 08:07:20;;;;;;;12.27;5.93;;;20.60;70.30;;;;;;5090502;28;20247;-65
2023/10/10 08:09:48;;;;;;;10.17;5.13;;;20.70;70.10;;;;;;5090365;28;20232;-65
2023/10/10 08:12:15;;;;;;;12.70;5.57;;;20.80;70.00;;;;;;5057687;28;20315;-65
2023/10/10 08:14:44;;;;;;;13.43;6.13;;;20.80;70.40;;;;;;5094445;28;20204;-65
2023/10/10 08:17:19;;;;;;;12.40;5.87;;;20.90;69.50;;;;;;5094295;28;20237;-65
2023/10/10 08:19:50;;;;;;;14.70;5.87;;;21.00;69.20;;;;;;5093673;28;20212;-64
2023/10/10 08:22:19;;;;;;;11.93;5.43;;;21.10;69.40;;;;;;5095792;28;20548;-64
2023/10/10 08:24:46;;;;;;;10.00;5.33;;;21.20;69.20;;;;;;5093601;28;20281;-65
2023/10/10 08:27:14;;;;;;;13.67;6.17;;;21.40;69.00;;;;;;5093854;28;20381;-65
2023/10/10 08:29:41;;;;;;;11.27;6.33;;;21.40;68.70;;;;;;5093713;28;20208;-65
2023/10/10 08:32:09;;;;;;;9.50;5.60;;;21.50;68.50;;;;;;5093624;28;20212;-64
2023/10/10 08:34:38;;;;;;;11.77;5.83;;;21.60;68.10;;;;;;5094084;28;20208;-64
2023/10/10 08:37:05;;;;;;;13.37;6.40;;;21.60;67.70;;;;;;5093898;28;20240;-64
2023/10/10 08:39:36;;;;;;;13.20;5.80;;;21.70;67.50;;;;;;5093827;28;20208;-64
2023/10/10 08:42:05;;;;;;;12.67;5.50;;;21.80;67.60;;;;;;5074110;28;20208;-65
2023/10/10 08:44:37;;;;;;;11.50;5.43;;;21.90;67.30;;;;;;5093589;28;20261;-65
2023/10/10 08:47:06;;;;;;;12.13;5.57;;;21.90;66.60;;;;;;5093653;28;20228;-65
2023/10/10 08:49:35;;;;;;;13.93;5.53;;;22.00;66.40;;;;;;5093397;28;20756;-65
2023/10/10 08:52:03;;;;;;;9.07;5.20;;;22.10;66.30;;;;;;5093358;28;20204;-65
2023/10/10 08:54:32;;;;;;;12.70;5.97;;;22.20;65.60;;;;;;5093633;28;20208;-64
2023/10/10 08:57:03;;;;;;;11.90;6.67;;;22.30;65.40;;;;;;5093403;28;20216;-64
2023/10/10 08:59:31;;;;;;;15.43;6.00;;;22.40;64.30;;;;;;5093406;28;20235;-64
2023/10/10 09:02:09;;;;;;;15.50;7.80;;;22.40;64.20;;;;;;5093524;28;20297;-65
2023/10/10 09:04:38;;;;;;;15.50;7.67;;;22.60;63.90;;;;;;5093188;28;20216;-65
2023/10/10 09:07:20;;;;;;;11.00;6.40;;;22.70;63.40;;;;;;5093344;28;20678;-65
2023/10/10 09:09:54;;;;;;;12.50;5.83;;;22.70;63.70;;;;;;5092837;28;20248;-64
2023/10/10 09:12:23;;;;;;;11.57;4.83;;;22.90;63.80;;;;;;5093250;28;20620;-64
2023/10/10 09:14:50;;;;;;;9.57;5.53;;;23.00;62.90;;;;;;5093272;28;20232;-64
2023/10/10 09:17:28;;;;;;;13.97;5.60;;;23.10;62.20;;;;;;5093001;28;20216;-65
2023/10/10 09:19:58;;;;;;;13.87;6.33;;;23.20;61.90;;;;;;5092903;28;20583;-65
2023/10/10 09:22:42;;;;;;;13.37;5.50;;;23.20;61.50;;;;;;5091026;28;20703;-65
2023/10/10 09:25:20;;;;;;;11.33;5.70;;;23.30;61.70;;;;;;5092430;28;20739;-64
2023/10/10 09:28:00;;;;;;;11.53;5.00;;;23.40;60.60;;;;;;5092797;28;20223;-64
2023/10/10 09:30:31;;;;;;;9.63;5.20;;;23.50;60.00;;;;;;5092885;28;20691;-64
2023/10/10 09:33:03;;;;;;;10.67;4.90;;;23.50;60.70;;;;;;5092819;28;20200;-64
2023/10/10 09:35:33;;;;;;;11.00;5.03;;;23.60;59.70;;;;;;5093106;28;20266;-65
2023/10/10 09:38:01;;;;;;;15.23;6.27;;;23.70;59.70;;;;;;5092699;28;20218;-63
2023/10/10 09:40:33;;;;;;;10.50;5.10;;;23.80;59.70;;;;;;5092177;28;20232;-65
2023/10/10 09:43:12;;;;;;;12.03;5.10;;;24.00;59.70;;;;;;5092302;28;20219;-65
2023/10/10 09:45:52;;;;;;;8.83;4.67;;;24.10;59.20;;;;;;5092389;28;20224;-64
2023/10/10 09:48:46;;;;;;;11.70;5.77;;;24.30;58.30;;;;;;5092466;28;20291;-64
2023/10/10 09:52:47;;;;;;;13.97;8.13;;;24.30;58.40;;;;;;5073150;28;20200;-64
2023/10/10 09:54:19;;;;;;;10.03;5.67;;;24.40;58.30;;;;;;5091636;28;20254;-64
2023/10/10 09:56:48;;;;;;;8.87;4.73;;;24.60;58.80;;;;;;5092646;28;20552;-65
2023/10/10 09:59:16;;;;;;;10.50;5.10;;;24.70;58.40;;;;;;5092127;28;20695;-64
2023/10/10 10:01:46;;;;;;;12.63;5.63;;;24.90;57.90;;;;;;5092172;28;20299;-65
2023/10/10 10:04:18;;;;;;;13.23;5.47;;;25.00;57.40;;;;;;5092325;28;20265;-65
2023/10/10 10:07:35;;;;;;;9.80;5.23;;;25.00;57.40;;;;;;5092139;28;20236;-65
2023/10/10 10:10:33;;;;;;;12.47;5.83;;;25.30;57.40;;;;;;5091976;28;20205;-63
2023/10/10 10:13:19;;;;;;;10.53;4.73;;;25.40;57.30;;;;;;5059071;28;20242;-64
2023/10/10 10:16:15;;;;;;;14.17;5.40;;;25.60;56.90;;;;;;5091939;28;20204;-65
2023/10/10 10:18:47;;;;;;;7.97;4.83;;;25.60;56.30;;;;;;5091625;28;20884;-65
2023/10/10 10:21:19;;;;;;;12.40;5.07;;;25.40;56.60;;;;;;5091954;28;20200;-65
2023/10/10 10:23:56;;;;;;;11.37;5.13;;;25.50;57.40;;;;;;5091018;28;20704;-64
2023/10/10 10:26:41;;;;;;;12.70;4.63;;;25.60;57.50;;;;;;5091660;28;20282;-64
2023/10/10 10:29:15;;;;;;;9.47;4.70;;;25.70;57.10;;;;;;5091496;28;20245;-65
2023/10/10 10:31:49;;;;;;;10.83;4.80;;;25.80;57.00;;;;;;5091831;28;20586;-65
2023/10/10 10:34:24;;;;;;;12.40;4.77;;;25.90;56.90;;;;;;5090998;28;20207;-65
2023/10/10 10:36:56;;;;;;;11.07;5.17;;;25.90;56.20;;;;;;5091356;28;20204;-65
2023/10/10 10:39:25;;;;;;;8.23;4.23;;;25.70;56.40;;;;;;5091383;28;20212;-65
2023/10/10 10:41:54;;;;;;;11.80;5.00;;;25.70;56.60;;;;;;5091605;28;20200;-65
2023/10/10 10:44:44;;;;;;;10.87;4.70;;;25.80;57.10;;;;;;5090913;28;20236;-65
2023/10/10 10:47:48;;;;;;;10.50;5.13;;;26.00;56.40;;;;;;5091282;28;20225;-65
2023/10/10 10:50:42;;;;;;;10.57;4.20;;;26.10;55.90;;;;;;5089942;28;20232;-65
2023/10/10 10:53:30;;;;;;;9.20;4.90;;;26.10;55.90;;;;;;5090722;28;20209;-65
2023/10/10 10:59:11;;;;;;;10.37;4.50;;;26.40;56.00;;;;;;5091245;28;20691;-65
2023/10/10 11:01:43;;;;;;;9.90;4.83;;;26.60;54.70;;;;;;5091103;28;20213;-65
2023/10/10 11:04:18;;;;;;;10.47;5.47;;;26.70;53.60;;;;;;5090852;28;20314;-65
2023/10/10 11:06:52;;;;;;;10.67;5.07;;;26.70;53.50;;;;;;5090960;28;20290;-65
2023/10/10 11:09:28;;;;;;;7.27;4.60;;;26.70;52.80;;;;;;5090716;28;20227;-64
2023/10/10 11:12:03;;;;;;;9.10;4.53;;;26.70;52.30;;;;;;5090918;28;20201;-64
2023/10/10 11:14:30;;;;;;;11.50;4.40;;;26.50;53.30;;;;;;5090926;28;20617;-64
2023/10/10 11:16:58;;;;;;;8.67;5.00;;;26.60;53.80;;;;;;5090638;28;20205;-63
2023/10/10 11:19:38;;;;;;;13.23;5.60;;;26.70;54.00;;;;;;5090951;28;20677;-64
2023/10/10 11:22:05;;;;;;;8.00;4.70;;;26.80;53.30;;;;;;5090972;28;20279;-65
2023/10/10 11:24:34;;;;;;;13.40;8.10;;;27.00;53.40;;;;;;5090672;28;20272;-65
2023/10/10 11:27:14;;;;;;;13.97;6.77;;;27.10;53.00;;;;;;5090296;28;20234;-65
2023/10/10 11:29:44;;;;;;;12.70;6.87;;;27.20;52.50;;;;;;5090763;28;20740;-65
2023/10/10 11:32:13;;;;;;;9.80;5.60;;;27.30;52.50;;;;;;5090815;28;20447;-65
2023/10/10 11:34:44;;;;;;;15.20;5.57;;;27.50;52.80;;;;;;5090645;28;20206;-66
2023/10/10 11:37:13;;;;;;;8.20;4.70;;;27.60;51.90;;;;;;5090405;28;20201;-64
2023/10/10 11:39:47;;;;;;;7.93;4.60;;;27.50;51.40;;;;;;5090547;28;20209;-64
2023/10/10 11:42:27;;;;;;;10.10;4.70;;;27.50;51.40;;;;;;5090588;28;20315;-65
2023/10/10 11:45:00;;;;;;;10.57;5.20;;;27.50;51.40;;;;;;5091611;28;20215;-65
2023/10/10 11:47:27;;;;;;;10.70;5.90;;;27.50;50.60;;;;;;5093755;28;20229;-65
2023/10/10 11:50:01;;;;;;;15.10;10.20;;;27.70;50.50;;;;;;5094540;28;20245;-65
2023/10/10 11:52:29;;;;;;;12.20;8.37;;;27.70;49.40;;;;;;5094766;28;20214;-65
2023/10/10 11:54:58;;;;;;;11.60;6.50;;;27.70;48.60;;;;;;5094534;28;20238;-65
2023/10/10 11:57:29;;;;;;;12.77;5.40;;;27.70;49.10;;;;;;5094537;28;20207;-65
2023/10/10 11:59:59;;;;;;;11.70;5.67;;;27.70;48.80;;;;;;5094408;28;20209;-65
2023/10/10 12:02:39;;;;;;;8.47;6.53;;;27.80;48.30;;;;;;5094411;28;20208;-66
2023/10/10 12:05:25;;;;;;;10.40;8.00;;;27.80;48.20;;;;;;5094259;28;20204;-64
2023/10/10 12:07:53;;;;;;;9.03;5.97;;;27.70;47.90;;;;;;5093870;28;20242;-65
2023/10/10 12:10:23;;;;;;;9.20;6.10;;;27.80;48.30;;;;;;5094188;28;20207;-65
2023/10/10 12:12:53;;;;;;;9.10;4.90;;;28.00;48.70;;;;;;5094116;28;20211;-66
2023/10/10 12:15:22;;;;;;;10.67;5.43;;;28.20;48.80;;;;;;5094235;28;20199;-65
2023/10/10 12:17:51;;;;;;;8.87;6.37;;;28.30;48.20;;;;;;5093809;28;20209;-64
2023/10/10 12:20:18;;;;;;;12.33;7.27;;;28.30;47.80;;;;;;5093867;28;20789;-64
2023/10/10 12:22:45;;;;;;;9.37;6.37;;;28.30;48.00;;;;;;5094218;28;20206;-64
2023/10/10 12:25:14;;;;;;;13.57;8.53;;;28.50;47.50;;;;;;5092383;28;20700;-65
2023/10/10 12:27:46;;;;;;;9.30;4.67;;;28.50;47.40;;;;;;5093590;28;20238;-64
2023/10/10 12:30:18;;;;;;;10.13;4.70;;;28.60;47.70;;;;;;5059501;28;20579;-64
2023/10/10 12:32:46;;;;;;;8.53;4.73;;;28.80;47.60;;;;;;5093625;28;20703;-64
2023/10/10 12:35:13;;;;;;;14.20;9.63;;;29.00;47.00;;;;;;5094055;28;20698;-64
2023/10/10 12:37:44;;;;;;;8.77;4.93;;;29.20;46.60;;;;;;5093594;28;20203;-65
2023/10/10 12:40:12;;;;;;;8.37;4.93;;;29.40;46.20;;;;;;5093485;28;20230;-65
2023/10/10 12:42:39;;;;;;;8.60;4.97;;;29.50;45.40;;;;;;5094046;28;20212;-66
2023/10/10 12:45:07;;;;;;;8.77;4.50;;;29.70;45.20;;;;;;5094597;28;20235;-65
2023/10/10 12:47:35;;;;;;;9.33;4.83;;;29.90;44.80;;;;;;5094143;28;20277;-64
2023/10/10 12:50:04;;;;;;;8.63;4.83;;;30.10;44.10;;;;;;5094103;28;20711;-65
2023/10/10 12:52:35;;;;;;;9.20;5.73;;;30.20;44.00;;;;;;5059410;28;20200;-66
2023/10/10 12:55:09;;;;;;;9.60;5.03;;;30.20;43.60;;;;;;5094519;28;20294;-65
2023/10/10 12:57:36;;;;;;;10.03;4.70;;;30.20;43.30;;;;;;5094039;28;20319;-65
2023/10/10 13:02:50;;;;;;;9.27;5.17;;;30.30;42.20;;;;;;5094135;28;20732;-64
2023/10/10 13:05:26;;;;;;;11.30;5.57;;;30.60;42.10;;;;;;5093921;28;20210;-65
2023/10/10 13:07:55;;;;;;;8.93;5.07;;;30.80;41.70;;;;;;5094081;28;20580;-65
2023/10/10 13:10:26;;;;;;;14.07;5.53;;;31.00;41.70;;;;;;5094020;28;20219;-66
2023/10/10 13:12:54;;;;;;;8.83;5.20;;;31.20;42.10;;;;;;5081537;28;20205;-65
2023/10/10 13:15:29;;;;;;;9.27;5.00;;;31.40;41.10;;;;;;5073426;28;20265;-66
2023/10/10 13:20:39;;;;;;;9.20;5.40;;;31.70;40.30;;;;;;5074596;28;20230;-65
2023/10/10 13:23:07;;;;;;;9.73;5.77;;;31.80;39.50;;;;;;5093759;28;20210;-66
2023/10/10 13:25:37;;;;;;;10.23;5.43;;;32.10;39.10;;;;;;5093418;28;20241;-65
2023/10/10 13:28:09;;;;;;;10.07;5.87;;;32.60;38.00;;;;;;5093294;28;20327;-66
2023/10/10 13:30:38;;;;;;;11.50;6.53;;;33.20;37.70;;;;;;5093421;28;20569;-66
2023/10/10 13:33:07;;;;;;;11.97;6.10;;;33.90;35.40;;;;;;5093186;28;20234;-66
2023/10/10 13:35:37;;;;;;;9.80;6.80;;;34.80;34.80;;;;;;5093635;28;20554;-66
2023/10/10 13:38:04;;;;;;;7.60;5.00;;;35.80;33.60;;;;;;5058633;28;20327;-66
2023/10/10 13:40:37;;;;;;;9.83;5.10;;;37.00;32.30;;;;;;5093110;28;20200;-66
2023/10/10 13:43:08;;;;;;;8.83;5.27;;;37.70;31.80;;;;;;5093533;28;20211;-66
2023/10/10 13:45:38;;;;;;;7.47;5.10;;;38.60;31.00;;;;;;5092939;28;20211;-65
2023/10/10 13:48:13;;;;;;;7.50;4.70;;;39.20;30.00;;;;;;5093292;28;20349;-67
2023/10/10 13:50:42;;;;;;;10.93;5.37;;;39.70;29.20;;;;;;5092915;28;20577;-68
2023/10/10 13:53:12;;;;;;;8.67;5.67;;;39.70;29.50;;;;;;5053805;28;20203;-66
2023/10/10 13:55:41;;;;;;;8.07;4.63;;;39.60;29.30;;;;;;5072909;28;20235;-67
2023/10/10 13:58:10;;;;;;;7.93;5.00;;;40.00;29.40;;;;;;5072723;28;20302;-66
2023/10/10 14:00:38;;;;;;;10.60;5.80;;;39.90;28.70;;;;;;5072453;28;20307;-66
2023/10/10 14:03:06;;;;;;;7.53;5.00;;;40.00;29.30;;;;;;5072450;28;20292;-66
2023/10/10 14:05:34;;;;;;;7.63;4.77;;;40.20;28.90;;;;;;5072729;28;20429;-67
2023/10/10 14:08:06;;;;;;;8.70;5.13;;;40.10;28.60;;;;;;5071833;28;20243;-67
2023/10/10 14:10:40;;;;;;;7.53;4.70;;;39.60;28.70;;;;;;5072339;28;20212;-66
2023/10/10 14:13:23;;;;;;;8.13;4.73;;;39.30;29.40;;;;;;5072374;28;20706;-66
2023/10/10 14:15:57;;;;;;;7.17;5.13;;;39.40;29.60;;;;;;5072317;28;20239;-66
2023/10/10 14:18:41;;;;;;;7.43;5.27;;;39.40;29.30;;;;;;5072407;28;20207;-67
2023/10/10 14:21:09;;;;;;;8.57;5.00;;;39.50;28.80;;;;;;5080942;28;20223;-66
2023/10/10 14:23:36;;;;;;;7.27;4.73;;;39.30;29.00;;;;;;5092720;28;20209;-67
2023/10/10 14:26:13;;;;;;;11.47;5.87;;;39.50;29.00;;;;;;5092278;28;20240;-66
2023/10/10 14:28:41;;;;;;;9.27;4.93;;;39.20;28.80;;;;;;5092300;28;20190;-67
2023/10/10 14:31:11;;;;;;;10.30;5.20;;;39.10;29.10;;;;;;5092201;28;20252;-67
2023/10/10 14:33:40;;;;;;;8.90;5.30;;;38.90;29.00;;;;;;5092571;28;20506;-66
2023/10/10 14:36:12;;;;;;;7.10;4.93;;;38.50;29.30;;;;;;5092228;28;20203;-66
2023/10/10 14:38:39;;;;;;;8.23;5.03;;;38.70;29.00;;;;;;5092382;28;20239;-67
2023/10/10 14:41:07;;;;;;;8.97;5.43;;;38.50;29.20;;;;;;5092090;28;20208;-66
2023/10/10 14:43:34;;;;;;;11.43;5.17;;;38.40;29.10;;;;;;5091812;28;20271;-67
2023/10/10 14:46:02;;;;;;;9.93;5.60;;;38.20;29.50;;;;;;5092104;28;20204;-65
2023/10/10 14:48:31;;;;;;;9.93;6.10;;;38.00;29.50;;;;;;5092529;28;20629;-66
2023/10/10 14:51:05;;;;;;;7.70;4.87;;;38.10;29.80;;;;;;5091818;28;20207;-66
2023/10/10 14:53:34;;;;;;;7.67;4.93;;;38.00;29.80;;;;;;5091899;28;20214;-67
2023/10/10 14:56:05;;;;;;;7.60;5.50;;;37.70;29.70;;;;;;5092003;28;20209;-67
2023/10/10 14:58:33;;;;;;;9.27;4.93;;;37.30;29.80;;;;;;5091831;28;20207;-67
2023/10/10 15:01:00;;;;;;;9.97;5.63;;;36.90;30.50;;;;;;5091956;28;20622;-65
2023/10/10 15:03:28;;;;;;;7.97;5.10;;;36.40;30.80;;;;;;5091658;28;20296;-66
2023/10/10 15:06:04;;;;;;;7.77;5.00;;;36.00;32.00;;;;;;5091751;28;20737;-65
2023/10/10 15:08:32;;;;;;;8.47;5.27;;;35.60;31.90;;;;;;5091930;28;20225;-65